createdAt,value
2022-12-16T00:01:34.724Z,-1.73
2022-12-16T00:04:06.164Z,-1.55
2022-12-16T00:06:37.520Z,-1.58
2022-12-16T00:09:09.253Z,-1.46
2022-12-16T00:11:40.622Z,-1.43
2022-12-16T00:14:11.993Z,-1.46
2022-12-16T00:16:43.395Z,-1.44
2022-12-16T00:19:15.036Z,-1.45
2022-12-16T00:21:46.351Z,-1.45
2022-12-16T00:24:17.698Z,-1.65
2022-12-16T00:26:49.062Z,-1.44
2022-12-16T00:29:20.559Z,-1.43
2022-12-16T00:31:52.271Z,-1.44
2022-12-16T00:34:24.027Z,-1.45
2022-12-16T00:36:55.402Z,-1.44
2022-12-16T00:39:26.723Z,-1.43
2022-12-16T00:41:58.097Z,-1.55
2022-12-16T00:44:29.462Z,-1.52
2022-12-16T00:47:00.858Z,-1.46
2022-12-16T00:49:32.204Z,-1.45
2022-12-16T00:52:03.720Z,-1.46
2022-12-16T00:54:38.348Z,-1.51
2022-12-16T00:57:10.054Z,-1.71
2022-12-16T00:59:41.404Z,-1.57
2022-12-16T01:02:12.837Z,-1.50
2022-12-16T01:04:44.511Z,-1.54
2022-12-16T01:07:16.016Z,-1.48
2022-12-16T01:09:47.379Z,-1.49
2022-12-16T01:12:18.729Z,-1.54
2022-12-16T01:14:50.160Z,-1.66
2022-12-16T01:17:21.688Z,-1.70
2022-12-16T01:19:56.395Z,-1.66
2022-12-16T01:22:31.125Z,-1.67
2022-12-16T01:25:03.694Z,-1.67
2022-12-16T01:27:35.145Z,-1.67
2022-12-16T01:30:09.033Z,-1.83
2022-12-16T01:32:40.396Z,-1.62
2022-12-16T01:35:43.913Z,-1.66
2022-12-16T01:38:04.607Z,-1.60
2022-12-16T01:40:35.990Z,-1.64
2022-12-16T01:43:14.124Z,-1.67
2022-12-16T01:45:45.716Z,-1.71
2022-12-16T01:48:38.905Z,-1.68
2022-12-16T01:51:32.373Z,-1.68
2022-12-16T01:54:14.904Z,-1.76
2022-12-16T01:56:54.306Z,-1.83
2022-12-16T01:59:29.724Z,-1.84
2022-12-16T02:02:02.793Z,-1.79
2022-12-16T02:04:34.269Z,-1.74
2022-12-16T02:07:05.521Z,-1.72
2022-12-16T02:09:36.806Z,-1.68
2022-12-16T02:12:40.656Z,-1.69
2022-12-16T02:19:57.891Z,-1.70
2022-12-16T02:22:44.851Z,-1.70
2022-12-16T02:25:26.084Z,-1.69
2022-12-16T02:28:26.814Z,-1.71
2022-12-16T02:31:09.585Z,-1.75
2022-12-16T02:33:52.119Z,-1.76
2022-12-16T02:36:40.981Z,-1.68
2022-12-16T02:40:00.378Z,-1.86
2022-12-16T02:42:37.629Z,-1.80
2022-12-16T02:45:20.120Z,-1.73
2022-12-16T02:47:51.562Z,-1.72
2022-12-16T02:50:28.024Z,-1.90
2022-12-16T02:53:01.280Z,-1.72
2022-12-16T02:55:44.969Z,-1.74
2022-12-16T02:58:22.916Z,-1.76
2022-12-16T03:01:18.202Z,-1.73
2022-12-16T03:03:52.252Z,-1.73
2022-12-16T03:06:27.375Z,-1.72
2022-12-16T03:09:03.497Z,-1.73
2022-12-16T03:11:36.585Z,-1.75
2022-12-16T03:14:11.445Z,-1.81
2022-12-16T03:16:45.140Z,-1.81
2022-12-16T03:19:16.605Z,-1.87
2022-12-16T03:21:54.729Z,-1.71
2022-12-16T03:24:26.214Z,-1.70
2022-12-16T03:27:13.899Z,-1.73
2022-12-16T03:29:58.875Z,-1.61
2022-12-16T03:32:41.848Z,-1.65
2022-12-16T03:35:16.263Z,-1.58
2022-12-16T03:37:51.790Z,-1.57
2022-12-16T03:40:25.369Z,-1.68
2022-12-16T03:42:57.359Z,-1.54
2022-12-16T03:45:35.676Z,-1.55
2022-12-16T03:48:10.069Z,-1.56
2022-12-16T03:50:41.494Z,-1.53
2022-12-16T03:53:12.824Z,-1.51
2022-12-16T03:55:44.344Z,-1.57
2022-12-16T03:58:15.648Z,-1.46
2022-12-16T04:00:47.153Z,-1.43
2022-12-16T04:03:18.498Z,-1.50
2022-12-16T04:05:49.908Z,-1.42
2022-12-16T04:08:21.177Z,-1.54
2022-12-16T04:11:12.358Z,-1.44
2022-12-16T04:14:02.212Z,-1.55
2022-12-16T04:16:51.968Z,-1.65
2022-12-16T04:19:47.109Z,-1.70
2022-12-16T04:22:44.895Z,-1.94
2022-12-16T04:25:26.247Z,-2.06
2022-12-16T04:27:58.638Z,-2.25
2022-12-16T04:30:34.727Z,-2.42
2022-12-16T04:33:28.446Z,-2.48
2022-12-16T04:36:19.171Z,-2.75
2022-12-16T04:39:09.468Z,-2.86
2022-12-16T04:41:59.569Z,-2.92
2022-12-16T04:44:49.641Z,-2.99
2022-12-16T04:47:39.511Z,-3.18
2022-12-16T04:50:29.794Z,-3.35
2022-12-16T04:53:19.679Z,-3.39
2022-12-16T04:56:09.305Z,-3.41
2022-12-16T04:58:58.921Z,-3.57
2022-12-16T05:01:48.930Z,-3.67
2022-12-16T05:04:38.703Z,-3.78
2022-12-16T05:07:32.001Z,-3.76
2022-12-16T05:10:26.108Z,-3.95
2022-12-16T05:13:16.005Z,-3.96
2022-12-16T05:16:06.275Z,-4.07
2022-12-16T05:18:56.414Z,-4.03
2022-12-16T05:21:46.374Z,-4.09
2022-12-16T05:24:36.463Z,-4.16
2022-12-16T05:27:26.627Z,-4.36
2022-12-16T05:30:16.460Z,-4.36
2022-12-16T05:33:09.136Z,-4.42
2022-12-16T05:35:58.873Z,-4.49
2022-12-16T05:38:48.831Z,-4.59
2022-12-16T05:41:38.957Z,-4.66
2022-12-16T05:44:28.950Z,-4.79
2022-12-16T05:47:18.933Z,-4.82
2022-12-16T05:50:09.168Z,-4.89
2022-12-16T05:52:59.091Z,-5.04
2022-12-16T05:55:49.185Z,-5.07
2022-12-16T05:58:39.177Z,-5.06
2022-12-16T06:01:29.184Z,-5.16
2022-12-16T06:04:19.675Z,-5.12
2022-12-16T06:07:09.787Z,-5.19
2022-12-16T06:09:59.494Z,-5.22
2022-12-16T06:12:49.440Z,-5.17
2022-12-16T06:15:39.787Z,-5.33
2022-12-16T06:18:29.901Z,-5.28
2022-12-16T06:21:19.693Z,-5.33
2022-12-16T06:24:09.445Z,-5.54
2022-12-16T06:26:59.194Z,-5.53
2022-12-16T06:29:49.365Z,-5.73
2022-12-16T06:32:39.472Z,-5.68
2022-12-16T06:35:29.634Z,-5.70
2022-12-16T06:38:19.368Z,-5.64
2022-12-16T06:41:09.301Z,-5.65
2022-12-16T06:43:59.075Z,-5.70
2022-12-16T06:46:49.061Z,-5.99
2022-12-16T06:49:39.033Z,-5.80
2022-12-16T06:52:29.018Z,-6.00
2022-12-16T06:55:18.921Z,-6.07
2022-12-16T06:58:15.593Z,-5.92
2022-12-16T07:01:05.894Z,-5.93
2022-12-16T07:03:55.602Z,-6.08
2022-12-16T07:06:45.593Z,-5.94
2022-12-16T07:09:35.731Z,-5.89
2022-12-16T07:12:25.725Z,-5.87
2022-12-16T07:15:15.592Z,-5.85
2022-12-16T07:18:05.310Z,-5.80
2022-12-16T07:20:55.124Z,-5.72
2022-12-16T07:23:45.224Z,-5.81
2022-12-16T07:26:35.309Z,-5.56
2022-12-16T07:29:25.335Z,-5.51
2022-12-16T07:32:15.132Z,-5.51
2022-12-16T07:35:04.909Z,-5.65
2022-12-16T07:37:57.351Z,-5.52
2022-12-16T07:40:51.923Z,-5.58
2022-12-16T07:43:41.864Z,-5.58
2022-12-16T07:46:31.750Z,-5.51
2022-12-16T07:49:21.533Z,-5.48
2022-12-16T07:52:11.396Z,-5.51
2022-12-16T07:55:01.200Z,-5.65
2022-12-16T07:57:51.211Z,-5.60
2022-12-16T08:00:41.208Z,-5.55
2022-12-16T08:03:31.750Z,-5.51
2022-12-16T08:06:22.125Z,-5.50
2022-12-16T08:09:11.950Z,-5.70
2022-12-16T08:12:01.773Z,-5.50
2022-12-16T08:14:51.584Z,-5.48
2022-12-16T08:17:42.703Z,-5.64
2022-12-16T08:20:32.786Z,-5.55
2022-12-16T08:23:22.812Z,-5.43
2022-12-16T08:26:12.643Z,-5.45
2022-12-16T08:29:34.735Z,-5.41
2022-12-16T08:32:12.414Z,-5.59
2022-12-16T08:35:02.193Z,-5.45
2022-12-16T08:37:52.161Z,-5.19
2022-12-16T08:40:42.449Z,-4.95
2022-12-16T08:43:33.494Z,-4.69
2022-12-16T08:46:23.680Z,-4.44
2022-12-16T08:49:13.316Z,-4.22
2022-12-16T08:52:03.033Z,-4.00
2022-12-16T08:54:52.857Z,-3.76
2022-12-16T08:57:43.173Z,-3.56
2022-12-16T09:00:33.733Z,-3.41
2022-12-16T09:03:23.885Z,-3.38
2022-12-16T09:06:18.296Z,-3.18
2022-12-16T09:09:08.272Z,-3.07
2022-12-16T09:11:58.606Z,-3.12
2022-12-16T09:14:48.609Z,-2.83
2022-12-16T09:17:38.706Z,-2.71
2022-12-16T09:20:29.163Z,-2.65
2022-12-16T09:23:22.964Z,-2.46
2022-12-16T09:26:12.836Z,-2.40
2022-12-16T09:29:02.957Z,-2.28
2022-12-16T09:31:52.736Z,-2.28
2022-12-16T09:34:42.878Z,-2.17
2022-12-16T09:37:33.007Z,-2.17
2022-12-16T09:40:24.031Z,-2.11
2022-12-16T09:43:56.309Z,-1.98
2022-12-16T09:47:24.506Z,-1.96
2022-12-16T09:50:14.724Z,-1.97
2022-12-16T09:53:15.719Z,-1.91
2022-12-16T09:56:06.342Z,-1.91
2022-12-16T09:59:02.199Z,-1.98
2022-12-16T10:01:56.259Z,-1.88
2022-12-16T10:04:46.988Z,-1.79
2022-12-16T10:07:40.317Z,-1.85
2022-12-16T10:10:41.163Z,-1.79
2022-12-16T10:14:01.344Z,-1.65
2022-12-16T10:17:40.764Z,-1.56
2022-12-16T10:20:49.822Z,-1.49
2022-12-16T10:23:44.335Z,-1.51
2022-12-16T10:27:12.549Z,-1.54
2022-12-16T10:30:04.869Z,-1.50
2022-12-16T10:33:08.061Z,-1.43
2022-12-16T10:36:07.885Z,-1.38
2022-12-16T10:39:07.766Z,-1.44
2022-12-16T10:42:03.699Z,-1.38
2022-12-16T10:44:56.191Z,-1.30
2022-12-16T10:47:46.249Z,-1.25
2022-12-16T10:50:36.312Z,-1.32
2022-12-16T10:53:35.946Z,-1.12
2022-12-16T10:56:32.540Z,-1.12
2022-12-16T10:59:24.611Z,-1.08
2022-12-16T11:02:22.236Z,-0.98
2022-12-16T11:05:12.540Z,-0.92
2022-12-16T11:08:02.377Z,-0.88
2022-12-16T11:10:56.387Z,-0.85
2022-12-16T11:13:50.713Z,-0.84
2022-12-16T11:16:44.697Z,-0.84
2022-12-16T11:19:38.777Z,-0.82
2022-12-16T11:22:37.878Z,-0.74
2022-12-16T11:25:34.592Z,-0.80
2022-12-16T11:28:35.724Z,-0.67
2022-12-16T11:31:49.674Z,-0.58
2022-12-16T11:34:39.792Z,-0.55
2022-12-16T11:37:29.809Z,-0.54
2022-12-16T11:40:21.127Z,-0.60
2022-12-16T11:43:16.789Z,-0.62
2022-12-16T11:46:10.154Z,-0.42
2022-12-16T11:49:07.982Z,-0.33
2022-12-16T11:52:21.153Z,-0.30
2022-12-16T11:55:55.544Z,-0.31
2022-12-16T11:58:55.250Z,-0.24
2022-12-16T12:02:07.276Z,-0.16
2022-12-16T12:04:58.892Z,-0.07
2022-12-16T12:08:10.738Z,0.02
2022-12-16T12:11:29.384Z,0.05
2022-12-16T12:14:51.602Z,0.07
2022-12-16T12:18:06.646Z,0.08
2022-12-16T12:21:05.557Z,-0.07
2022-12-16T12:24:23.124Z,-0.01
2022-12-16T12:27:51.924Z,-0.01
2022-12-16T12:31:02.848Z,-0.02
2022-12-16T12:34:17.680Z,-0.07
2022-12-16T12:37:16.141Z,-0.07
2022-12-16T12:40:15.952Z,-0.07
2022-12-16T12:43:11.882Z,0.03
2022-12-16T12:46:21.367Z,0.13
2022-12-16T12:49:40.818Z,0.10
2022-12-16T12:52:43.567Z,0.26
2022-12-16T12:55:47.179Z,0.28
2022-12-16T12:58:37.789Z,0.18
2022-12-16T13:01:29.254Z,0.31
2022-12-16T13:04:24.844Z,0.26
2022-12-16T13:07:17.677Z,0.18
2022-12-16T13:10:32.714Z,0.09
2022-12-16T13:13:42.948Z,0.05
2022-12-16T13:17:14.304Z,0.00
2022-12-16T13:20:12.483Z,-0.03
2022-12-16T13:23:04.587Z,-0.06
2022-12-16T13:26:10.628Z,-0.13
2022-12-16T13:29:01.480Z,-0.10
2022-12-16T13:31:51.611Z,-0.05
2022-12-16T13:34:46.966Z,-0.16
2022-12-16T13:37:42.900Z,-0.14
2022-12-16T13:40:41.029Z,-0.06
2022-12-16T13:44:05.357Z,-0.09
2022-12-16T13:47:11.036Z,-0.18
2022-12-16T13:50:04.993Z,-0.05
2022-12-16T13:53:13.924Z,-0.01
2022-12-16T13:56:14.758Z,0.04
2022-12-16T13:59:11.413Z,-0.11
2022-12-16T14:02:16.729Z,0.03
2022-12-16T14:05:11.586Z,0.00
2022-12-16T14:08:02.554Z,-0.07
2022-12-16T14:10:57.687Z,-0.01
2022-12-16T14:14:14.229Z,-0.07
2022-12-16T14:17:10.208Z,-0.14
2022-12-16T14:20:20.723Z,-0.21
2022-12-16T14:23:58.859Z,-0.28
2022-12-16T14:26:49.257Z,-0.38
2022-12-16T14:29:43.392Z,-0.64
2022-12-16T14:32:46.877Z,-0.63
2022-12-16T14:35:41.516Z,-0.77
2022-12-16T14:38:49.074Z,-0.89
2022-12-16T14:41:43.671Z,-0.97
2022-12-16T14:44:39.925Z,-1.04
2022-12-16T14:47:36.152Z,-1.08
2022-12-16T14:50:38.435Z,-1.14
2022-12-16T14:53:49.434Z,-1.20
2022-12-16T14:56:41.588Z,-1.37
2022-12-16T14:59:36.747Z,-1.35
2022-12-16T15:02:39.348Z,-1.36
2022-12-16T15:05:30.119Z,-1.42
2022-12-16T15:08:19.873Z,-1.48
2022-12-16T15:11:10.917Z,-1.55
2022-12-16T15:14:03.892Z,-1.76
2022-12-16T15:16:55.602Z,-1.80
2022-12-16T15:20:01.549Z,-1.92
2022-12-16T15:22:53.747Z,-2.15
2022-12-16T15:25:45.305Z,-2.22
2022-12-16T15:28:54.896Z,-2.48
2022-12-16T15:32:03.480Z,-2.30
2022-12-16T15:35:08.073Z,-2.64
2022-12-16T15:38:04.332Z,-2.33
2022-12-16T15:40:59.349Z,-2.44
2022-12-16T15:43:57.308Z,-2.28
2022-12-16T15:46:48.820Z,-2.25
2022-12-16T15:49:50.353Z,-2.20
2022-12-16T15:53:00.361Z,-2.21
2022-12-16T15:55:59.505Z,-2.30
2022-12-16T15:58:54.892Z,-2.25
2022-12-16T16:01:46.632Z,-2.09
2022-12-16T16:04:42.043Z,-2.17
2022-12-16T16:07:40.933Z,-2.19
2022-12-16T16:10:35.583Z,-2.12
2022-12-16T16:13:25.592Z,-2.13
2022-12-16T16:16:15.885Z,-2.11
2022-12-16T16:19:05.653Z,-2.09
2022-12-16T16:21:55.407Z,-2.09
2022-12-16T16:24:45.503Z,-2.12
2022-12-16T16:27:37.219Z,-2.27
2022-12-16T16:30:28.835Z,-2.16
2022-12-16T16:33:18.735Z,-2.13
2022-12-16T16:36:08.700Z,-2.09
2022-12-16T16:38:58.396Z,-2.18
2022-12-16T16:41:48.537Z,-2.11
2022-12-16T16:44:38.628Z,-2.27
2022-12-16T16:47:35.169Z,-2.15
2022-12-16T16:50:25.675Z,-2.19
2022-12-16T16:53:15.822Z,-2.10
2022-12-16T16:56:05.635Z,-2.08
2022-12-16T16:58:55.460Z,-2.06
2022-12-16T17:01:45.539Z,-2.04
2022-12-16T17:04:35.590Z,-2.24
2022-12-16T17:07:25.509Z,-2.08
2022-12-16T17:10:15.162Z,-1.97
2022-12-16T17:13:05.042Z,-1.94
2022-12-16T17:15:56.179Z,-2.00
2022-12-16T17:18:51.962Z,-1.87
2022-12-16T17:21:41.976Z,-1.85
2022-12-16T17:24:32.003Z,-1.84
2022-12-16T17:27:36.748Z,-1.79
2022-12-16T17:30:35.422Z,-1.81
2022-12-16T17:33:25.523Z,-1.78
2022-12-16T17:36:15.393Z,-1.91
2022-12-16T17:39:05.191Z,-1.71
2022-12-16T17:41:54.932Z,-1.69
2022-12-16T17:44:46.044Z,-1.68
2022-12-16T17:47:36.093Z,-1.66
2022-12-16T17:50:26.613Z,-1.76
2022-12-16T17:53:17.413Z,-1.78
2022-12-16T17:56:07.264Z,-1.68
2022-12-16T17:58:58.072Z,-1.59
2022-12-16T18:01:48.056Z,-1.56
2022-12-16T18:04:38.016Z,-1.68
2022-12-16T18:07:28.002Z,-1.59
2022-12-16T18:10:17.969Z,-1.56
2022-12-16T18:13:08.241Z,-1.58
2022-12-16T18:16:17.886Z,-1.71
2022-12-16T18:19:09.075Z,-1.61
2022-12-16T18:21:58.978Z,-1.62
2022-12-16T18:24:48.929Z,-1.67
2022-12-16T18:27:39.012Z,-1.61
2022-12-16T18:30:30.146Z,-1.72
2022-12-16T18:33:20.408Z,-1.59
2022-12-16T18:36:10.251Z,-1.63
2022-12-16T18:38:59.944Z,-1.55
2022-12-16T18:41:49.967Z,-1.54
2022-12-16T18:44:40.090Z,-1.51
2022-12-16T18:47:30.669Z,-1.51
2022-12-16T18:50:27.817Z,-1.50
2022-12-16T18:53:19.201Z,-1.50
2022-12-16T18:56:24.421Z,-1.51
2022-12-16T18:59:14.166Z,-1.53
2022-12-16T19:02:04.218Z,-1.48
2022-12-16T19:04:54.415Z,-1.50
2022-12-16T19:07:44.559Z,-1.47
2022-12-16T19:10:34.637Z,-1.48
2022-12-16T19:13:24.584Z,-1.49
2022-12-16T19:16:15.974Z,-1.47
2022-12-16T19:19:05.827Z,-1.47
2022-12-16T19:21:56.562Z,-1.46
2022-12-16T19:24:46.769Z,-1.45
2022-12-16T19:27:36.847Z,-1.50
2022-12-16T19:30:28.045Z,-1.44
2022-12-16T19:33:17.898Z,-1.43
2022-12-16T19:36:07.761Z,-1.41
2022-12-16T19:38:57.496Z,-1.51
2022-12-16T19:41:47.532Z,-1.43
2022-12-16T19:44:37.474Z,-1.47
2022-12-16T19:47:27.570Z,-1.52
2022-12-16T19:50:17.689Z,-1.43
2022-12-16T19:53:07.734Z,-1.43
2022-12-16T19:55:57.816Z,-1.48
2022-12-16T19:58:47.861Z,-1.43
2022-12-16T20:01:37.951Z,-1.41
2022-12-16T20:04:28.308Z,-1.42
2022-12-16T20:07:23.048Z,-1.42
2022-12-16T20:10:13.450Z,-1.42
2022-12-16T20:13:03.321Z,-1.42
2022-12-16T20:15:53.156Z,-1.51
2022-12-16T20:18:46.331Z,-1.52
2022-12-16T20:21:36.250Z,-1.53
2022-12-16T20:24:26.387Z,-1.44
2022-12-16T20:27:16.441Z,-1.45
2022-12-16T20:30:06.365Z,-1.46
2022-12-16T20:32:56.301Z,-1.49
2022-12-16T20:35:46.133Z,-1.50
2022-12-16T20:38:36.255Z,-1.48
2022-12-16T20:41:26.237Z,-1.54
2022-12-16T20:44:15.915Z,-1.56
2022-12-16T20:47:05.641Z,-1.51
2022-12-16T20:49:55.368Z,-1.55
2022-12-16T20:52:45.931Z,-1.69
2022-12-16T20:55:36.024Z,-1.56
2022-12-16T20:58:26.122Z,-1.60
2022-12-16T21:01:15.889Z,-1.58
2022-12-16T21:04:05.739Z,-1.64
2022-12-16T21:06:56.186Z,-1.72
2022-12-16T21:09:45.981Z,-2.55
2022-12-16T21:12:35.887Z,-1.81
2022-12-16T21:15:26.404Z,-1.74
2022-12-16T21:18:19.814Z,-1.72
2022-12-16T21:21:11.534Z,-1.71
2022-12-16T21:24:01.353Z,-1.81
2022-12-16T21:26:51.495Z,-1.73
2022-12-16T21:29:41.698Z,-2.00
2022-12-16T21:32:31.805Z,-1.92
2022-12-16T21:35:22.136Z,-1.82
2022-12-16T21:38:12.357Z,-2.00
2022-12-16T21:41:02.225Z,-1.89
2022-12-16T21:43:52.083Z,-2.00
2022-12-16T21:46:42.274Z,-1.95
2022-12-16T21:49:32.299Z,-1.96
2022-12-16T21:52:22.595Z,-1.98
2022-12-16T21:55:12.395Z,-2.02
2022-12-16T21:58:02.323Z,-2.03
2022-12-16T22:00:56.188Z,-2.04
2022-12-16T22:03:54.244Z,-2.15
2022-12-16T22:09:57.152Z,-2.13
2022-12-16T22:12:47.210Z,-2.19
2022-12-16T22:15:37.138Z,-2.11
2022-12-16T22:18:27.241Z,-2.12
2022-12-16T22:21:21.644Z,-2.12
2022-12-16T22:24:31.697Z,-2.15
2022-12-16T22:27:21.552Z,-2.18
2022-12-16T22:30:11.555Z,-2.22
2022-12-16T22:33:01.359Z,-2.28
2022-12-16T22:35:52.495Z,-2.27
2022-12-16T22:38:42.495Z,-2.28
2022-12-16T22:41:32.725Z,-2.40
2022-12-16T22:44:22.801Z,-2.52
2022-12-16T22:47:12.617Z,-2.48
2022-12-16T22:50:02.380Z,-2.55
2022-12-16T22:52:52.411Z,-2.41
2022-12-16T22:55:43.419Z,-2.45
2022-12-16T22:58:33.519Z,-2.49
2022-12-16T23:01:27.228Z,-2.55
2022-12-16T23:04:17.096Z,-2.73
2022-12-16T23:07:06.908Z,-2.87
2022-12-16T23:09:57.188Z,-3.02
2022-12-16T23:12:47.246Z,-3.16
2022-12-16T23:15:37.437Z,-3.15
2022-12-16T23:18:27.666Z,-3.31
2022-12-16T23:21:17.439Z,-3.46
2022-12-16T23:24:10.594Z,-3.56
2022-12-16T23:27:02.296Z,-3.72
2022-12-16T23:29:52.033Z,-3.84
2022-12-16T23:32:31.396Z,-2.17
2022-12-16T23:32:43.150Z,-3.92
2022-12-16T23:35:33.100Z,-4.02
2022-12-16T23:38:25.191Z,-4.10
2022-12-16T23:41:16.561Z,-4.18
2022-12-16T23:44:06.299Z,-4.26
2022-12-16T23:46:56.048Z,-4.33
2022-12-16T23:49:46.666Z,-4.42
2022-12-16T23:52:36.732Z,-4.52
2022-12-16T23:55:27.276Z,-4.71
2022-12-16T23:58:22.858Z,-4.69
